createdAt,value
2019-03-08T00:00:33.006Z,99395.39
2019-03-08T00:03:02.361Z,99398.61
2019-03-08T00:05:31.458Z,99408.28
2019-03-08T00:08:00.545Z,99410.27
2019-03-08T00:10:29.617Z,99413.16
2019-03-08T00:12:58.775Z,99410.52
2019-03-08T00:15:27.921Z,99411.75
2019-03-08T00:18:03.406Z,99423.20
2019-03-08T00:20:32.493Z,99427.58
2019-03-08T00:23:01.555Z,99435.69
2019-03-08T00:25:31.116Z,99430.84
2019-03-08T00:28:00.186Z,99436.73
2019-03-08T00:30:29.434Z,99439.13
2019-03-08T00:32:58.905Z,99431.99
2019-03-08T00:35:27.973Z,99440.25
2019-03-08T00:37:57.099Z,99446.54
2019-03-08T00:40:26.170Z,99451.58
2019-03-08T00:42:55.304Z,99460.05
2019-03-08T00:45:24.673Z,99460.05
2019-03-08T00:47:53.944Z,99462.19
2019-03-08T00:50:23.238Z,99463.66
2019-03-08T00:52:52.328Z,99462.03
2019-03-08T00:55:21.527Z,99459.16
2019-03-08T00:57:50.590Z,99465.03
2019-03-08T01:00:20.136Z,99460.98
2019-03-08T01:02:49.817Z,99469.95
2019-03-08T01:05:19.680Z,99466.58
2019-03-08T01:07:48.750Z,99454.66
2019-03-08T01:10:19.231Z,99460.16
2019-03-08T01:12:48.897Z,99462.33
2019-03-08T01:15:18.338Z,99462.11
2019-03-08T01:17:50.408Z,99456.64
2019-03-08T01:20:19.841Z,99461.84
2019-03-08T01:22:49.427Z,99461.09
2019-03-08T01:25:19.054Z,99463.05
2019-03-08T01:28:01.193Z,99458.47
2019-03-08T01:30:30.559Z,99461.90
2019-03-08T01:32:59.727Z,99458.81
2019-03-08T01:35:28.957Z,99460.85
2019-03-08T01:38:00.068Z,99465.99
2019-03-08T01:40:29.137Z,99471.72
2019-03-08T01:42:58.508Z,99476.78
2019-03-08T01:45:27.632Z,99476.78
2019-03-08T01:47:56.737Z,99476.14
2019-03-08T01:50:26.062Z,99477.83
2019-03-08T01:52:55.191Z,99480.88
2019-03-08T01:55:24.446Z,99481.42
2019-03-08T01:57:53.539Z,99489.67
2019-03-08T02:00:22.643Z,99488.76
2019-03-08T02:02:53.158Z,99507.94
2019-03-08T02:05:23.940Z,99507.94
2019-03-08T02:07:56.132Z,99522.40
2019-03-08T02:10:25.794Z,99550.69
2019-03-08T02:12:55.406Z,99542.66
2019-03-08T02:15:24.969Z,99525.83
2019-03-08T02:17:54.184Z,99522.45
2019-03-08T02:20:23.667Z,99519.16
2019-03-08T02:22:52.737Z,99524.80
2019-03-08T02:25:21.787Z,99522.83
2019-03-08T02:27:51.043Z,99525.20
2019-03-08T02:30:20.184Z,99525.43
2019-03-08T02:32:49.435Z,99535.08
2019-03-08T02:35:20.507Z,99529.71
2019-03-08T02:37:49.725Z,99522.64
2019-03-08T02:40:35.759Z,99536.41
2019-03-08T02:43:09.992Z,99534.78
2019-03-08T02:45:39.023Z,99535.78
2019-03-08T02:48:08.111Z,99530.95
2019-03-08T02:50:37.310Z,99534.25
2019-03-08T02:53:06.487Z,99534.53
2019-03-08T02:55:36.050Z,99536.50
2019-03-08T02:58:05.444Z,99540.18
2019-03-08T03:00:44.402Z,99536.17
2019-03-08T03:03:14.095Z,99536.28
2019-03-08T03:05:43.277Z,99549.17
2019-03-08T03:08:12.637Z,99547.64
2019-03-08T03:10:41.786Z,99544.77
2019-03-08T03:13:11.034Z,99548.59
2019-03-08T03:15:40.165Z,99550.50
2019-03-08T03:18:09.524Z,99544.33
2019-03-08T03:20:39.047Z,99559.45
2019-03-08T03:23:08.317Z,99561.59
2019-03-08T03:25:37.445Z,99564.20
2019-03-08T03:28:06.499Z,99568.60
2019-03-08T03:30:35.605Z,99575.98
2019-03-08T03:33:04.770Z,99579.76
2019-03-08T03:35:34.105Z,99583.16
2019-03-08T03:38:03.236Z,99587.38
2019-03-08T03:40:32.562Z,99594.38
2019-03-08T03:43:01.603Z,99601.46
2019-03-08T03:45:30.846Z,99595.78
2019-03-08T03:47:59.979Z,99609.57
2019-03-08T03:50:29.246Z,99611.41
2019-03-08T03:52:58.503Z,99612.23
2019-03-08T03:55:27.797Z,99613.28
2019-03-08T03:57:58.756Z,99618.92
2019-03-08T04:00:28.041Z,99626.63
2019-03-08T04:02:57.486Z,99624.05
2019-03-08T04:05:26.527Z,99626.50
2019-03-08T04:07:55.768Z,99628.37
2019-03-08T04:10:25.237Z,99628.27
2019-03-08T04:12:54.283Z,99626.50
2019-03-08T04:15:23.562Z,99626.83
2019-03-08T04:17:52.652Z,99641.23
2019-03-08T04:20:21.953Z,99637.72
2019-03-08T04:22:51.272Z,99652.11
2019-03-08T04:25:20.364Z,99652.50
2019-03-08T04:27:49.715Z,99658.55
2019-03-08T04:30:18.816Z,99664.52
2019-03-08T04:32:48.171Z,99669.27
2019-03-08T04:35:17.653Z,99671.30
2019-03-08T04:37:46.741Z,99666.83
2019-03-08T04:40:15.775Z,99674.01
2019-03-08T04:42:44.964Z,99682.72
2019-03-08T04:45:14.629Z,99679.30
2019-03-08T04:47:43.796Z,99683.53
2019-03-08T04:50:12.930Z,99688.13
2019-03-08T04:52:41.956Z,99689.85
2019-03-08T04:55:13.539Z,99689.33
2019-03-08T04:57:42.629Z,99696.55
2019-03-08T05:00:12.919Z,99692.16
2019-03-08T05:02:42.198Z,99690.05
2019-03-08T05:05:11.466Z,99694.66
2019-03-08T05:07:40.534Z,99703.56
2019-03-08T05:10:12.086Z,99700.91
2019-03-08T05:12:41.463Z,99713.03
2019-03-08T05:15:10.789Z,99712.27
2019-03-08T05:17:39.863Z,99714.16
2019-03-08T05:20:09.044Z,99711.00
2019-03-08T05:22:38.359Z,99720.16
2019-03-08T05:25:07.778Z,99716.94
2019-03-08T05:27:36.822Z,99719.10
2019-03-08T05:30:06.794Z,99714.16
2019-03-08T05:32:36.315Z,99722.08
2019-03-08T05:35:06.298Z,99722.52
2019-03-08T05:37:35.711Z,99736.88
2019-03-08T05:40:06.480Z,99731.42
2019-03-08T05:42:35.599Z,99743.14
2019-03-08T05:45:05.117Z,99744.95
2019-03-08T05:47:34.443Z,99743.38
2019-03-08T05:50:05.944Z,99751.39
2019-03-08T05:52:34.988Z,99746.78
2019-03-08T05:55:04.362Z,99743.27
2019-03-08T05:57:33.802Z,99750.31
2019-03-08T06:00:02.948Z,99751.56
2019-03-08T06:02:32.004Z,99754.98
2019-03-08T06:05:01.128Z,99761.65
2019-03-08T06:07:30.231Z,99757.42
2019-03-08T06:09:59.316Z,99765.96
2019-03-08T06:12:28.579Z,99767.88
2019-03-08T06:14:58.335Z,99770.34
2019-03-08T06:17:29.347Z,99777.33
2019-03-08T06:19:58.378Z,99768.70
2019-03-08T06:22:27.531Z,99777.98
2019-03-08T06:24:56.590Z,99778.74
2019-03-08T06:27:25.982Z,99780.91
2019-03-08T06:29:56.464Z,99776.57
2019-03-08T06:32:25.627Z,99778.36
2019-03-08T06:34:54.680Z,99783.70
2019-03-08T06:37:23.864Z,99779.77
2019-03-08T06:39:53.117Z,99791.73
2019-03-08T06:42:22.315Z,99795.89
2019-03-08T06:44:51.372Z,99797.41
2019-03-08T06:47:20.746Z,99798.39
2019-03-08T06:49:49.958Z,99803.92
2019-03-08T06:52:19.192Z,99804.66
2019-03-08T06:54:48.427Z,99812.56
2019-03-08T06:57:17.525Z,99818.56
2019-03-08T06:59:50.943Z,99831.88
2019-03-08T07:02:20.485Z,99834.92
2019-03-08T07:04:50.109Z,99842.84
2019-03-08T07:07:19.356Z,99853.50
2019-03-08T07:09:48.526Z,99849.72
2019-03-08T07:12:17.609Z,99865.40
2019-03-08T07:14:46.752Z,99864.22
2019-03-08T07:17:16.255Z,99869.28
2019-03-08T07:20:16.794Z,99876.73
2019-03-08T07:23:07.362Z,99880.84
2019-03-08T07:26:13.952Z,99885.52
2019-03-08T07:29:06.650Z,99892.80
2019-03-08T07:31:42.172Z,99905.05
2019-03-08T07:34:48.770Z,99910.58
2019-03-08T07:37:35.586Z,99915.44
2019-03-08T07:40:22.805Z,99911.17
2019-03-08T07:43:13.659Z,99922.62
2019-03-08T07:46:00.488Z,99928.03
2019-03-08T07:48:51.813Z,99938.33
2019-03-08T07:51:29.720Z,99945.37
2019-03-08T07:54:36.373Z,99951.12
2019-03-08T07:57:23.511Z,99956.07
2019-03-08T08:00:18.217Z,99965.98
2019-03-08T08:03:09.080Z,99968.77
2019-03-08T08:06:00.505Z,99970.70
2019-03-08T08:08:41.321Z,99973.95
2019-03-08T08:11:32.160Z,99977.52
2019-03-08T08:14:23.273Z,99990.00
2019-03-08T08:17:17.374Z,99989.62
2019-03-08T08:20:04.289Z,99991.58
2019-03-08T08:22:52.382Z,100001.19
2019-03-08T08:25:37.324Z,100004.53
2019-03-08T08:28:14.447Z,100017.58
2019-03-08T08:31:01.597Z,100009.47
2019-03-08T08:33:55.641Z,100016.75
2019-03-08T08:36:43.690Z,100019.05
2019-03-08T08:39:31.751Z,100023.16
2019-03-08T08:42:32.156Z,100018.91
2019-03-08T08:45:17.635Z,100021.32
2019-03-08T08:48:00.590Z,100023.83
2019-03-08T08:50:54.455Z,100027.82
2019-03-08T08:53:41.155Z,100037.70
2019-03-08T08:56:28.066Z,100028.62
2019-03-08T08:59:25.836Z,100028.14
2019-03-08T09:02:12.758Z,100040.29
2019-03-08T09:05:03.942Z,100043.45
2019-03-08T09:07:41.158Z,100039.05
2019-03-08T09:10:26.760Z,100049.38
2019-03-08T09:13:15.245Z,100048.71
2019-03-08T09:15:53.160Z,100044.23
2019-03-08T09:18:39.007Z,100050.09
2019-03-08T09:21:26.056Z,100044.14
2019-03-08T09:24:20.172Z,100050.10
2019-03-08T09:27:05.930Z,100041.00
2019-03-08T09:29:43.782Z,100043.94
2019-03-08T09:32:31.998Z,100038.57
2019-03-08T09:35:15.118Z,100053.45
2019-03-08T09:38:09.179Z,100053.09
2019-03-08T09:40:56.901Z,100053.16
2019-03-08T09:43:37.197Z,100052.56
2019-03-08T09:46:19.585Z,100054.36
2019-03-08T09:49:07.743Z,100057.24
2019-03-08T09:51:52.628Z,100061.68
2019-03-08T09:54:46.741Z,100053.31
2019-03-08T09:57:38.007Z,100065.95
2019-03-08T10:00:27.139Z,100073.70
2019-03-08T10:03:24.465Z,100076.91
2019-03-08T10:06:11.819Z,100077.91
2019-03-08T10:08:52.848Z,100080.61
2019-03-08T10:11:49.985Z,100088.47
2019-03-08T10:14:56.572Z,100093.20
2019-03-08T10:17:47.345Z,100089.88
2019-03-08T10:20:40.723Z,100070.02
2019-03-08T10:23:28.762Z,100092.84
2019-03-08T10:26:15.523Z,100085.12
2019-03-08T10:29:12.866Z,100108.23
2019-03-08T10:31:52.005Z,100118.63
2019-03-08T10:34:52.364Z,100107.80
2019-03-08T10:37:40.630Z,100113.50
2019-03-08T10:40:29.542Z,100118.16
2019-03-08T10:43:03.538Z,100112.33
2019-03-08T10:45:37.640Z,100116.27
2019-03-08T10:48:20.775Z,100113.97
2019-03-08T10:51:24.715Z,100127.38
2019-03-08T10:54:15.773Z,100122.34
2019-03-08T10:57:03.014Z,100112.08
2019-03-08T10:59:51.388Z,100137.97
2019-03-08T11:02:38.131Z,100140.06
2019-03-08T11:05:34.918Z,100134.15
2019-03-08T11:08:30.022Z,100147.89
2019-03-08T11:11:17.060Z,100159.00
2019-03-08T11:14:08.250Z,100154.12
2019-03-08T11:17:03.339Z,100155.53
2019-03-08T11:19:53.486Z,100164.44
2019-03-08T11:22:44.700Z,100165.19
2019-03-08T11:25:35.030Z,100162.58
2019-03-08T11:28:30.357Z,100156.73
2019-03-08T11:31:37.226Z,100158.50
2019-03-08T11:34:17.804Z,100165.33
2019-03-08T11:37:04.332Z,100158.86
2019-03-08T11:39:46.527Z,100157.16
2019-03-08T11:42:43.946Z,100165.05
2019-03-08T11:45:26.237Z,100162.91
2019-03-08T11:48:18.713Z,100165.75
2019-03-08T11:51:02.207Z,100152.78
2019-03-08T11:54:02.721Z,100171.67
2019-03-08T11:56:56.135Z,100167.50
2019-03-08T11:59:40.646Z,100172.22
2019-03-08T12:02:38.206Z,100167.56
2019-03-08T12:05:27.857Z,100158.73
2019-03-08T12:08:28.453Z,100171.42
2019-03-08T12:11:29.226Z,100170.50
2019-03-08T12:14:29.839Z,100173.25
2019-03-08T12:17:24.210Z,100174.16
2019-03-08T12:20:01.568Z,100173.69
2019-03-08T12:22:56.748Z,100181.63
2019-03-08T12:25:33.416Z,100180.95
2019-03-08T12:28:29.527Z,100187.87
2019-03-08T12:31:16.240Z,100232.09
2019-03-08T12:34:00.850Z,100251.39
2019-03-08T12:36:49.193Z,100257.94
2019-03-08T12:39:36.050Z,100253.08
2019-03-08T12:42:23.115Z,100254.03
2019-03-08T12:45:29.740Z,100254.88
2019-03-08T12:48:23.709Z,100266.67
2019-03-08T12:50:55.794Z,100280.80
2019-03-08T12:53:39.050Z,100273.40
2019-03-08T12:56:14.202Z,100274.36
2019-03-08T12:58:57.657Z,100265.77
2019-03-08T13:01:49.373Z,100277.67
2019-03-08T13:04:40.591Z,100271.40
2019-03-08T13:07:25.781Z,100264.40
2019-03-08T13:09:56.531Z,100265.55
2019-03-08T13:12:25.636Z,100264.70
2019-03-08T13:14:54.762Z,100261.95
2019-03-08T13:17:24.103Z,100267.87
2019-03-08T13:19:53.346Z,100275.41
2019-03-08T13:22:22.603Z,100282.98
2019-03-08T13:24:51.882Z,100286.61
2019-03-08T13:27:20.985Z,100288.98
2019-03-08T13:29:50.123Z,100273.62
2019-03-08T13:32:19.299Z,100283.17
2019-03-08T13:34:48.655Z,100282.67
2019-03-08T13:37:17.898Z,100279.62
2019-03-08T13:39:47.137Z,100276.98
2019-03-08T13:42:17.351Z,100276.59
2019-03-08T13:44:46.712Z,100272.49
2019-03-08T13:47:15.803Z,100272.11
2019-03-08T13:49:45.078Z,100284.04
2019-03-08T13:52:14.410Z,100287.95
2019-03-08T13:54:44.002Z,100290.00
2019-03-08T13:57:13.129Z,100293.58
2019-03-08T13:59:43.259Z,100286.33
2019-03-08T14:02:12.335Z,100283.11
2019-03-08T14:04:41.586Z,100285.84
2019-03-08T14:07:10.677Z,100289.12
2019-03-08T14:09:39.781Z,100289.34
2019-03-08T14:12:09.234Z,100292.05
2019-03-08T14:14:38.367Z,100293.75
2019-03-08T14:17:07.766Z,100287.12
2019-03-08T14:19:37.458Z,100280.91
2019-03-08T14:22:08.759Z,100275.11
2019-03-08T14:24:38.099Z,100273.56
2019-03-08T14:27:07.210Z,100273.56
2019-03-08T14:29:36.358Z,100273.47
2019-03-08T14:32:08.555Z,100270.34
2019-03-08T14:34:37.645Z,100273.50
2019-03-08T14:37:08.590Z,100265.32
2019-03-08T14:39:40.190Z,100272.23
2019-03-08T14:42:18.044Z,100263.27
2019-03-08T14:44:53.303Z,100263.53
2019-03-08T14:47:33.455Z,100273.98
2019-03-08T14:50:03.381Z,100272.03
2019-03-08T14:52:32.528Z,100269.27
2019-03-08T14:55:01.753Z,100270.03
2019-03-08T14:57:30.871Z,100272.46
2019-03-08T15:00:08.770Z,100275.47
2019-03-08T15:02:39.592Z,100275.25
2019-03-08T15:05:11.479Z,100280.20
2019-03-08T15:07:41.157Z,100274.13
2019-03-08T15:10:12.508Z,100272.67
2019-03-08T15:12:49.120Z,100275.38
2019-03-08T15:15:14.235Z,100274.73
2019-03-08T15:17:45.099Z,100271.23
2019-03-08T15:20:16.455Z,100278.39
2019-03-08T15:22:46.091Z,100267.34
2019-03-08T15:25:17.308Z,100277.66
2019-03-08T15:27:46.501Z,100266.06
2019-03-08T15:30:16.975Z,100270.48
2019-03-08T15:32:46.445Z,100267.20
2019-03-08T15:35:17.012Z,100264.61
2019-03-08T15:37:46.797Z,100268.73
2019-03-08T15:40:17.971Z,100265.64
2019-03-08T15:42:47.275Z,100268.93
2019-03-08T15:45:17.305Z,100256.96
2019-03-08T15:47:47.610Z,100261.53
2019-03-08T15:50:17.216Z,100257.30
2019-03-08T15:52:48.994Z,100258.32
2019-03-08T15:55:18.200Z,100257.08
2019-03-08T15:57:47.272Z,100260.80
2019-03-08T16:00:18.795Z,100266.68
2019-03-08T16:02:48.712Z,100263.72
2019-03-08T16:05:18.607Z,100258.23
2019-03-08T16:07:48.729Z,100255.76
2019-03-08T16:10:19.228Z,100250.99
2019-03-08T16:12:48.544Z,100251.81
2019-03-08T16:15:17.770Z,100254.39
2019-03-08T16:17:47.141Z,100258.53
2019-03-08T16:20:16.877Z,100257.70
2019-03-08T16:22:48.399Z,100262.35
2019-03-08T16:25:17.911Z,100265.23
2019-03-08T16:27:47.119Z,100257.90
2019-03-08T16:30:20.627Z,100255.22
2019-03-08T16:32:58.264Z,100253.86
2019-03-08T16:35:31.311Z,100250.66
2019-03-08T16:38:14.493Z,100259.88
2019-03-08T16:41:04.188Z,100264.22
2019-03-08T16:43:42.013Z,100266.88
2019-03-08T16:46:34.848Z,100265.35
2019-03-08T16:49:28.819Z,100264.72
2019-03-08T16:52:23.334Z,100263.58
2019-03-08T16:55:05.491Z,100268.02
2019-03-08T16:57:52.182Z,100275.46
2019-03-08T17:00:40.431Z,100275.45
2019-03-08T17:03:27.073Z,100277.71
2019-03-08T17:06:26.391Z,100280.17
2019-03-08T17:09:32.340Z,100289.66
2019-03-08T17:12:18.833Z,100291.92
2019-03-08T17:15:16.315Z,100291.28
2019-03-08T17:18:05.723Z,100288.77
2019-03-08T17:21:00.379Z,100292.45
2019-03-08T17:26:50.141Z,100309.19
2019-03-08T17:29:33.515Z,100309.13
2019-03-08T17:32:24.846Z,100317.97
2019-03-08T17:35:16.304Z,100321.83
2019-03-08T17:38:09.101Z,100320.16
2019-03-08T17:41:12.289Z,100319.72
2019-03-08T17:44:02.201Z,100322.88
2019-03-08T17:47:02.230Z,100327.02
2019-03-08T17:49:57.914Z,100321.41
2019-03-08T17:52:46.927Z,100327.48
2019-03-08T17:55:36.801Z,100330.82
2019-03-08T17:58:26.808Z,100332.73
2019-03-08T18:01:19.496Z,100336.49
2019-03-08T18:04:01.281Z,100338.56
2019-03-08T18:06:47.062Z,100346.90
2019-03-08T18:09:25.595Z,100346.27
2019-03-08T18:12:12.200Z,100350.73
2019-03-08T18:15:18.636Z,100351.12
2019-03-08T18:18:09.281Z,100350.03
2019-03-08T18:21:09.913Z,100357.66
2019-03-08T18:24:00.191Z,100362.93
2019-03-08T18:26:48.556Z,100366.16
2019-03-08T18:29:46.093Z,100369.28
2019-03-08T18:32:25.465Z,100368.44
2019-03-08T18:35:17.090Z,100367.66
2019-03-08T18:38:08.390Z,100369.73
2019-03-08T18:40:54.475Z,100365.80
2019-03-08T18:43:36.783Z,100368.36
2019-03-08T18:46:33.565Z,100364.30
2019-03-08T18:49:37.072Z,100372.91
2019-03-08T18:52:27.978Z,100362.46
2019-03-08T18:55:05.502Z,100367.16
2019-03-08T18:57:56.862Z,100366.87
2019-03-08T19:00:33.742Z,100365.27
2019-03-08T19:03:25.648Z,100370.36
2019-03-08T19:06:17.242Z,100372.86
2019-03-08T19:09:06.869Z,100368.11
2019-03-08T19:11:53.049Z,100371.50
2019-03-08T19:14:44.507Z,100368.03
2019-03-08T19:17:39.505Z,100367.05
2019-03-08T19:20:26.782Z,100367.62
2019-03-08T19:23:36.764Z,100371.36
2019-03-08T19:26:15.430Z,100376.53
2019-03-08T19:29:02.730Z,100379.73
2019-03-08T19:31:58.120Z,100381.59
2019-03-08T19:34:42.059Z,100381.10
2019-03-08T19:37:30.451Z,100382.61
2019-03-08T19:40:21.447Z,100388.12
2019-03-08T19:43:09.826Z,100400.63
2019-03-08T19:45:49.145Z,100396.17
2019-03-08T19:48:43.762Z,100402.03
2019-03-08T19:51:30.399Z,100392.55
2019-03-08T19:54:26.947Z,100393.08
2019-03-08T19:57:16.979Z,100399.05
2019-03-08T20:00:10.628Z,100396.91
2019-03-08T20:02:48.813Z,100396.77
2019-03-08T20:05:38.742Z,100398.56
2019-03-08T20:08:35.926Z,100399.50
2019-03-08T20:11:27.586Z,100404.66
2019-03-08T20:14:30.882Z,100403.33
2019-03-08T20:17:19.840Z,100407.75
2019-03-08T20:20:13.172Z,100407.41
2019-03-08T20:22:54.088Z,100411.17
2019-03-08T20:25:45.535Z,100412.59
2019-03-08T20:28:33.339Z,100408.83
2019-03-08T20:31:15.969Z,100410.44
2019-03-08T20:33:56.563Z,100407.24
2019-03-08T20:36:50.061Z,100406.58
2019-03-08T20:39:37.351Z,100396.28
2019-03-08T20:42:21.686Z,100393.28
2019-03-08T20:45:02.889Z,100391.28
2019-03-08T20:47:33.655Z,100391.84
2019-03-08T20:50:04.196Z,100393.58
2019-03-08T20:52:33.620Z,100395.81
2019-03-08T20:55:02.678Z,100399.75
2019-03-08T20:57:32.409Z,100395.38
2019-03-08T21:00:03.017Z,100401.34
2019-03-08T21:02:32.530Z,100403.60
2019-03-08T21:05:01.638Z,100403.84
2019-03-08T21:07:30.824Z,100396.06
2019-03-08T21:10:01.212Z,100401.66
2019-03-08T21:12:30.391Z,100402.00
2019-03-08T21:14:59.525Z,100401.47
2019-03-08T21:17:28.844Z,100404.95
2019-03-08T21:19:57.915Z,100398.17
2019-03-08T21:22:28.519Z,100398.28
2019-03-08T21:24:59.818Z,100402.77
2019-03-08T21:27:28.934Z,100407.62
2019-03-08T21:29:58.212Z,100401.61
2019-03-08T21:32:27.411Z,100401.16
2019-03-08T21:34:56.675Z,100399.13
2019-03-08T21:37:25.916Z,100398.09
2019-03-08T21:39:55.040Z,100385.54
2019-03-08T21:42:24.290Z,100391.02
2019-03-08T21:44:54.194Z,100385.73
2019-03-08T21:47:24.586Z,100388.30
2019-03-08T21:49:55.334Z,100383.44
2019-03-08T21:52:24.636Z,100384.73
2019-03-08T21:54:54.353Z,100381.90
2019-03-08T21:57:23.964Z,100380.38
2019-03-08T21:59:53.246Z,100368.02
2019-03-08T22:02:22.726Z,100368.33
2019-03-08T22:04:54.396Z,100376.92
2019-03-08T22:07:23.812Z,100369.42
2019-03-08T22:10:12.064Z,100368.97
2019-03-08T22:12:41.963Z,100362.84
2019-03-08T22:15:11.524Z,100360.44
2019-03-08T22:17:40.576Z,100358.06
2019-03-08T22:20:09.692Z,100353.93
2019-03-08T22:22:40.720Z,100354.12
2019-03-08T22:25:11.805Z,100353.55
2019-03-08T22:27:41.573Z,100348.31
2019-03-08T22:30:14.894Z,100352.78
2019-03-08T22:32:44.393Z,100357.11
2019-03-08T22:35:13.492Z,100350.30
2019-03-08T22:37:45.636Z,100347.66
2019-03-08T22:40:15.049Z,100349.38
2019-03-08T22:42:44.138Z,100331.75
2019-03-08T22:45:13.899Z,100324.41
2019-03-08T22:47:46.113Z,100319.36
2019-03-08T22:50:16.083Z,100316.48
2019-03-08T22:52:45.552Z,100316.64
2019-03-08T22:55:15.020Z,100321.92
2019-03-08T22:57:44.708Z,100321.69
2019-03-08T23:00:53.118Z,100325.28
2019-03-08T23:03:23.912Z,100314.20
2019-03-08T23:05:53.272Z,100322.57
2019-03-08T23:08:22.491Z,100312.09
2019-03-08T23:10:51.821Z,100304.21
2019-03-08T23:13:21.683Z,100311.41
2019-03-08T23:15:51.007Z,100306.89
2019-03-08T23:18:20.143Z,100305.28
2019-03-08T23:20:49.550Z,100308.73
2019-03-08T23:23:18.883Z,100305.58
2019-03-08T23:25:48.010Z,100293.92
2019-03-08T23:28:42.634Z,100297.91
2019-03-08T23:31:28.441Z,100301.95
2019-03-08T23:33:57.520Z,100304.28
2019-03-08T23:36:27.014Z,100292.73
2019-03-08T23:38:56.812Z,100292.58
2019-03-08T23:41:25.887Z,100299.66
2019-03-08T23:43:55.313Z,100295.02
2019-03-08T23:46:25.275Z,100297.31
2019-03-08T23:48:54.523Z,100306.81
2019-03-08T23:51:23.863Z,100299.73
2019-03-08T23:53:54.253Z,100302.88
2019-03-08T23:56:23.497Z,100293.23
2019-03-08T23:58:52.875Z,100294.12
